Time;durP1;ratioP1;P1;durP2;ratioP2;P2;SDS_P1;SDS_P2;PMS_P1;PMS_P2;Temp;Humidity;BMP_temperature;BMP_pressure;BME280_temperature;BME280_humidity;BME280_pressure;Samples;Min_cycle;Max_cycle;Signal;HPM_P1;HPM_P2
2022/05/14 00:01:03;;;;;;;11.25;4.28;;;14.80;99.90;;;;;;5033148;28;20056;-69
2022/05/14 00:03:31;;;;;;;18.98;5.47;;;14.80;99.90;;;;;;5033498;28;20049;-69
2022/05/14 00:05:59;;;;;;;19.80;5.93;;;14.90;99.90;;;;;;5033776;28;20081;-70
2022/05/14 00:08:26;;;;;;;12.25;5.22;;;14.90;99.90;;;;;;5033388;28;20059;-70
2022/05/14 00:13:38;;;;;;;16.63;4.97;;;15.00;99.90;;;;;;5034435;28;20068;-70
2022/05/14 00:16:03;;;;;;;16.88;5.28;;;15.00;99.90;;;;;;5037364;28;20053;-71
2022/05/14 00:18:30;;;;;;;23.15;5.38;;;15.00;99.90;;;;;;5037430;28;20480;-70
2022/05/14 00:20:56;;;;;;;11.65;4.57;;;14.90;99.90;;;;;;5036915;28;20553;-69
2022/05/14 00:23:22;;;;;;;13.90;4.75;;;14.80;99.90;;;;;;5037741;28;20045;-70
2022/05/14 00:25:47;;;;;;;16.05;5.03;;;14.80;99.90;;;;;;5019749;28;20046;-70
2022/05/14 00:28:14;;;;;;;14.65;5.15;;;14.80;99.90;;;;;;5037204;28;20049;-70
2022/05/14 00:30:40;;;;;;;18.90;5.45;;;14.80;99.90;;;;;;5036864;28;20120;-70
2022/05/14 00:33:06;;;;;;;17.33;5.32;;;14.80;99.90;;;;;;5019419;28;20494;-70
2022/05/14 00:35:33;;;;;;;18.38;5.10;;;14.80;99.90;;;;;;5037070;28;20096;-70
2022/05/14 00:37:58;;;;;;;24.45;5.75;;;14.70;99.90;;;;;;5019627;28;20041;-70
2022/05/14 00:40:26;;;;;;;23.00;6.30;;;14.70;99.90;;;;;;5037108;28;20040;-68
2022/05/14 00:42:52;;;;;;;19.80;6.07;;;14.60;99.90;;;;;;5036968;28;20124;-68
2022/05/14 00:45:19;;;;;;;22.70;5.93;;;14.50;99.90;;;;;;5036881;28;20154;-69
2022/05/14 00:47:48;;;;;;;22.20;6.22;;;14.60;99.90;;;;;;5036850;28;20068;-68
2022/05/14 00:50:23;;;;;;;22.67;6.88;;;14.60;99.90;;;;;;5037016;28;20050;-69
2022/05/14 00:52:52;;;;;;;22.98;6.32;;;14.60;99.90;;;;;;5019381;28;20112;-69
2022/05/14 00:55:18;;;;;;;27.48;6.50;;;14.40;99.90;;;;;;5036689;28;20088;-68
2022/05/14 00:57:45;;;;;;;20.02;5.78;;;14.40;99.90;;;;;;5036748;28;20130;-69
2022/05/14 01:00:21;;;;;;;29.65;6.65;;;14.30;99.90;;;;;;5036233;28;20069;-70
2022/05/14 01:02:48;;;;;;;24.05;5.95;;;14.30;99.90;;;;;;5036594;28;20048;-69
2022/05/14 01:05:16;;;;;;;24.67;6.85;;;14.40;99.90;;;;;;5036467;28;20049;-69
2022/05/14 01:07:43;;;;;;;16.92;5.93;;;14.50;99.90;;;;;;5018834;28;20123;-69
2022/05/14 01:10:11;;;;;;;21.45;6.53;;;14.50;99.90;;;;;;5036374;28;20477;-69
2022/05/14 01:12:43;;;;;;;21.80;5.60;;;14.50;99.90;;;;;;5036420;28;20068;-69
2022/05/14 01:15:19;;;;;;;17.85;5.93;;;14.60;99.90;;;;;;5036409;28;20068;-69
2022/05/14 01:17:46;;;;;;;22.02;6.13;;;14.70;99.90;;;;;;5036327;28;20077;-69
2022/05/14 01:20:14;;;;;;;19.13;5.75;;;14.80;99.90;;;;;;5036117;28;20045;-69
2022/05/14 01:22:43;;;;;;;18.38;6.53;;;14.80;99.90;;;;;;5018781;28;20051;-69
2022/05/14 01:28:05;;;;;;;23.92;6.82;;;14.80;99.90;;;;;;5036104;28;20137;-69
2022/05/14 01:30:31;;;;;;;26.23;6.30;;;14.90;99.90;;;;;;5035841;28;20136;-69
2022/05/14 01:33:06;;;;;;;19.65;6.32;;;14.80;99.90;;;;;;5035900;28;20071;-69
2022/05/14 01:35:37;;;;;;;22.63;6.30;;;14.80;99.90;;;;;;5036104;28;20068;-69
2022/05/14 01:38:03;;;;;;;26.20;6.15;;;14.80;99.90;;;;;;5018658;28;20129;-70
2022/05/14 01:40:32;;;;;;;27.40;7.75;;;14.80;99.90;;;;;;5036029;28;20046;-69
2022/05/14 01:42:58;;;;;;;24.42;6.90;;;14.80;99.90;;;;;;5018362;28;20053;-69
2022/05/14 01:45:25;;;;;;;25.15;6.80;;;14.80;99.90;;;;;;5035792;28;20045;-69
2022/05/14 01:47:51;;;;;;;23.08;6.57;;;14.60;99.90;;;;;;5035775;28;20049;-68
2022/05/14 01:50:17;;;;;;;24.92;7.13;;;14.60;99.90;;;;;;5002013;28;20056;-69
2022/05/14 01:52:42;;;;;;;23.95;6.55;;;14.50;99.90;;;;;;5035620;28;20053;-69
2022/05/14 01:55:08;;;;;;;25.63;5.72;;;14.40;99.90;;;;;;5018591;28;20056;-69
2022/05/14 01:57:34;;;;;;;25.90;6.53;;;14.50;99.90;;;;;;5035540;28;20087;-68
2022/05/14 01:59:59;;;;;;;24.92;6.18;;;14.40;99.90;;;;;;5035147;28;20048;-69
2022/05/14 02:02:25;;;;;;;21.23;5.75;;;14.50;99.90;;;;;;5035483;28;20049;-70
2022/05/14 02:04:51;;;;;;;20.38;6.63;;;14.50;99.90;;;;;;5017975;28;20053;-69
2022/05/14 02:07:16;;;;;;;25.92;7.20;;;14.40;99.90;;;;;;5034172;28;20064;-69
2022/05/14 02:09:42;;;;;;;24.58;6.28;;;14.40;99.90;;;;;;5018038;28;20053;-69
2022/05/14 02:12:08;;;;;;;43.05;8.57;;;14.40;99.90;;;;;;5017968;28;20042;-69
2022/05/14 02:14:34;;;;;;;30.13;7.28;;;14.50;99.90;;;;;;5035208;28;20051;-69
2022/05/14 02:17:00;;;;;;;25.15;6.22;;;14.50;99.90;;;;;;5034888;28;20046;-69
2022/05/14 02:19:25;;;;;;;37.50;9.27;;;14.40;99.90;;;;;;5035006;28;20091;-69
2022/05/14 02:21:51;;;;;;;26.63;7.57;;;14.40;99.90;;;;;;5035098;28;20084;-69
2022/05/14 02:24:16;;;;;;;23.90;7.22;;;14.20;99.90;;;;;;5035027;28;20045;-69
2022/05/14 02:26:42;;;;;;;44.85;9.15;;;14.10;99.90;;;;;;5035010;28;20462;-69
2022/05/14 02:29:08;;;;;;;29.50;7.70;;;14.00;99.90;;;;;;5034663;28;20484;-69
2022/05/14 02:31:33;;;;;;;29.52;8.13;;;13.90;99.90;;;;;;5017444;28;20046;-69
2022/05/14 02:33:59;;;;;;;26.20;6.85;;;13.90;99.90;;;;;;5034785;28;20053;-69
2022/05/14 02:36:25;;;;;;;24.55;6.10;;;13.90;99.90;;;;;;5033889;28;20049;-69
2022/05/14 02:38:51;;;;;;;24.23;6.75;;;13.90;99.90;;;;;;5034781;28;20100;-69
2022/05/14 02:41:16;;;;;;;26.42;6.65;;;13.90;99.90;;;;;;5034618;28;20503;-69
2022/05/14 02:43:42;;;;;;;21.85;6.47;;;13.90;99.90;;;;;;5034828;28;20041;-69
2022/05/14 02:46:08;;;;;;;22.08;5.97;;;13.90;99.90;;;;;;5034584;28;20049;-69
2022/05/14 02:48:35;;;;;;;24.17;7.03;;;13.80;99.90;;;;;;5034581;28;20091;-69
2022/05/14 02:51:01;;;;;;;21.90;5.90;;;13.80;99.90;;;;;;5034576;28;20468;-69
2022/05/14 02:53:28;;;;;;;26.80;5.90;;;13.80;99.90;;;;;;5017596;28;20506;-69
2022/05/14 02:55:53;;;;;;;23.95;7.00;;;13.80;99.90;;;;;;5017269;28;20400;-69
2022/05/14 03:01:04;;;;;;;30.52;6.47;;;13.70;99.90;;;;;;5033933;28;20053;-69
2022/05/14 03:03:31;;;;;;;27.55;6.40;;;13.70;99.90;;;;;;5034367;28;20124;-69
2022/05/14 03:05:56;;;;;;;29.35;7.13;;;13.60;99.90;;;;;;5034250;28;20527;-69
2022/05/14 03:08:22;;;;;;;26.77;6.18;;;13.60;99.90;;;;;;5034214;28;20053;-69
2022/05/14 03:10:48;;;;;;;26.35;5.90;;;13.60;99.90;;;;;;5016791;28;20099;-68
2022/05/14 03:13:13;;;;;;;22.30;6.15;;;13.60;99.90;;;;;;5032697;28;20041;-69
2022/05/14 03:15:39;;;;;;;23.02;6.38;;;13.50;99.90;;;;;;5033799;28;20049;-69
2022/05/14 03:18:05;;;;;;;27.17;6.35;;;13.50;99.90;;;;;;5034198;28;20045;-69
2022/05/14 03:20:30;;;;;;;23.85;6.30;;;13.40;99.90;;;;;;5033599;28;20044;-69
2022/05/14 03:22:56;;;;;;;23.35;6.60;;;13.40;99.90;;;;;;5033961;28;20045;-69
2022/05/14 03:25:22;;;;;;;26.13;6.63;;;13.30;99.90;;;;;;5033932;28;20128;-69
2022/05/14 03:27:47;;;;;;;21.67;6.13;;;13.30;99.90;;;;;;5033868;28;20087;-69
2022/05/14 03:30:13;;;;;;;25.20;6.80;;;13.20;99.90;;;;;;5033544;28;20045;-69
2022/05/14 03:32:40;;;;;;;19.10;6.43;;;13.30;99.90;;;;;;5033869;28;20045;-69
2022/05/14 03:35:08;;;;;;;23.60;5.97;;;13.30;99.90;;;;;;5034391;28;20049;-69
2022/05/14 03:37:35;;;;;;;18.17;6.18;;;13.30;99.90;;;;;;5016427;28;20038;-69
2022/05/14 03:40:01;;;;;;;22.35;6.20;;;13.30;99.90;;;;;;5033715;28;20124;-69
2022/05/14 03:42:26;;;;;;;22.10;6.10;;;13.30;99.90;;;;;;5033444;28;20554;-69
2022/05/14 03:44:52;;;;;;;31.00;7.20;;;13.20;99.90;;;;;;5033712;28;20088;-69
2022/05/14 03:47:18;;;;;;;19.92;6.25;;;13.20;99.90;;;;;;5033625;28;20041;-69
2022/05/14 03:49:45;;;;;;;26.35;6.47;;;13.20;99.90;;;;;;5034024;28;20475;-69
2022/05/14 03:52:12;;;;;;;26.90;6.28;;;13.20;99.90;;;;;;5016245;28;20373;-69
2022/05/14 03:54:43;;;;;;;24.40;6.50;;;13.20;99.90;;;;;;5033598;28;20509;-69
2022/05/14 03:57:08;;;;;;;25.10;6.32;;;13.20;99.90;;;;;;5033600;28;20103;-70
2022/05/14 03:59:35;;;;;;;30.15;7.50;;;13.20;99.90;;;;;;5033635;28;20042;-69
2022/05/14 04:02:02;;;;;;;26.42;7.10;;;13.30;99.90;;;;;;5033950;28;20054;-69
2022/05/14 04:04:28;;;;;;;41.20;9.27;;;13.30;99.90;;;;;;5033510;28;20499;-69
2022/05/14 04:06:54;;;;;;;27.58;6.65;;;13.30;99.90;;;;;;5033707;28;20045;-69
2022/05/14 04:09:20;;;;;;;21.27;7.57;;;13.30;99.90;;;;;;5033651;28;20037;-69
2022/05/14 04:11:46;;;;;;;33.15;7.57;;;13.30;99.90;;;;;;5033385;28;20046;-69
2022/05/14 04:14:12;;;;;;;22.73;7.57;;;13.30;99.90;;;;;;5033378;28;20137;-69
2022/05/14 04:16:38;;;;;;;23.55;7.32;;;13.30;99.90;;;;;;5033723;28;20128;-69
2022/05/14 04:19:04;;;;;;;30.52;6.95;;;13.30;99.90;;;;;;5015944;28;20049;-69
2022/05/14 04:21:32;;;;;;;28.67;6.93;;;13.40;99.90;;;;;;5015606;28;20086;-70
2022/05/14 04:23:59;;;;;;;23.88;7.05;;;13.40;99.90;;;;;;5033402;28;20049;-69
2022/05/14 04:26:25;;;;;;;23.23;6.80;;;13.40;99.90;;;;;;5033421;28;20068;-69
2022/05/14 04:28:51;;;;;;;30.40;6.63;;;13.50;99.90;;;;;;5033269;28;20057;-69
2022/05/14 04:31:18;;;;;;;27.08;7.47;;;13.50;99.90;;;;;;5032909;28;20068;-69
2022/05/14 04:33:43;;;;;;;25.63;7.13;;;13.50;99.90;;;;;;5033154;28;20068;-68
2022/05/14 04:36:09;;;;;;;25.98;6.88;;;13.50;99.90;;;;;;5032922;28;20480;-69
2022/05/14 04:38:35;;;;;;;35.30;7.97;;;13.50;99.90;;;;;;5033247;28;20128;-69
2022/05/14 04:41:01;;;;;;;29.90;8.63;;;13.50;99.90;;;;;;5033131;28;20464;-70
2022/05/14 04:43:27;;;;;;;27.27;7.75;;;13.60;99.90;;;;;;5033191;28;20481;-69
2022/05/14 04:45:52;;;;;;;19.95;6.93;;;13.60;99.90;;;;;;5033127;28;20048;-69
2022/05/14 04:48:18;;;;;;;21.55;7.28;;;13.60;99.90;;;;;;5033063;28;20085;-69
2022/05/14 04:50:45;;;;;;;19.05;7.10;;;13.70;99.90;;;;;;5033065;28;20048;-69
2022/05/14 04:53:12;;;;;;;22.73;7.03;;;13.80;99.90;;;;;;5033137;28;20116;-69
2022/05/14 04:55:38;;;;;;;32.53;8.70;;;13.80;99.90;;;;;;5033004;28;20072;-69
2022/05/14 04:58:07;;;;;;;31.75;8.70;;;13.90;99.90;;;;;;5032978;28;20084;-69
2022/05/14 05:00:33;;;;;;;30.70;8.43;;;13.90;99.90;;;;;;5034736;28;20180;-69
2022/05/14 05:03:17;;;;;;;30.27;8.10;;;14.00;99.90;;;;;;5036569;28;20049;-69
2022/05/14 05:05:45;;;;;;;26.55;7.97;;;14.00;99.90;;;;;;5036691;28;20045;-69
2022/05/14 05:08:10;;;;;;;30.50;8.32;;;14.10;99.90;;;;;;5036475;28;20045;-69
2022/05/14 05:10:36;;;;;;;28.05;7.80;;;14.00;99.90;;;;;;5036378;28;20045;-69
2022/05/14 05:13:03;;;;;;;28.85;7.47;;;14.10;99.90;;;;;;5036363;28;20046;-69
2022/05/14 05:15:28;;;;;;;27.55;7.93;;;14.20;99.90;;;;;;5036322;28;20075;-69
2022/05/14 05:17:55;;;;;;;34.92;8.32;;;14.40;99.90;;;;;;5035142;28;20048;-69
2022/05/14 05:20:21;;;;;;;35.33;7.70;;;14.40;99.90;;;;;;5036122;28;20038;-69
2022/05/14 05:22:48;;;;;;;30.52;8.07;;;14.50;99.90;;;;;;5036163;28;20472;-69
2022/05/14 05:25:14;;;;;;;29.30;7.50;;;14.60;99.90;;;;;;5036415;28;20092;-70
2022/05/14 05:27:40;;;;;;;25.90;7.30;;;14.70;99.90;;;;;;5036225;28;20093;-69
2022/05/14 05:30:07;;;;;;;23.88;7.45;;;14.70;99.90;;;;;;5036091;28;20081;-69
2022/05/14 05:32:33;;;;;;;30.90;8.68;;;14.70;99.90;;;;;;5036009;28;20097;-69
2022/05/14 05:35:00;;;;;;;43.92;9.35;;;14.60;99.90;;;;;;5036188;28;20084;-69
2022/05/14 05:37:26;;;;;;;42.05;10.05;;;14.70;99.90;;;;;;5035994;28;20077;-69
2022/05/14 05:39:51;;;;;;;33.78;9.93;;;14.70;99.90;;;;;;5035776;28;20052;-69
2022/05/14 05:42:17;;;;;;;45.15;9.90;;;14.70;99.90;;;;;;5035817;28;20037;-69
2022/05/14 05:44:43;;;;;;;42.17;10.38;;;14.80;99.90;;;;;;5036067;28;20049;-69
2022/05/14 05:47:09;;;;;;;37.35;10.57;;;14.80;99.90;;;;;;5035729;28;20086;-69
2022/05/14 05:49:37;;;;;;;32.40;8.57;;;14.90;99.90;;;;;;5035781;28;20085;-69
2022/05/14 05:52:03;;;;;;;48.05;10.10;;;15.00;99.90;;;;;;5035703;28;20129;-69
2022/05/14 05:57:13;;;;;;;36.95;9.45;;;15.00;99.90;;;;;;5035582;28;20103;-69
2022/05/14 05:59:39;;;;;;;40.33;9.50;;;15.00;99.90;;;;;;5035127;28;20053;-69
2022/05/14 06:02:05;;;;;;;43.92;9.35;;;15.10;99.90;;;;;;5017985;28;20049;-69
2022/05/14 06:04:30;;;;;;;45.53;9.52;;;15.20;99.90;;;;;;5035418;28;20045;-69
2022/05/14 06:06:56;;;;;;;31.27;7.80;;;15.00;99.90;;;;;;5035729;28;20051;-69
2022/05/14 06:09:29;;;;;;;38.20;8.45;;;15.10;99.90;;;;;;5035581;28;20056;-69
2022/05/14 06:11:56;;;;;;;28.92;7.53;;;15.10;99.90;;;;;;5018226;28;20099;-69
2022/05/14 06:14:22;;;;;;;36.08;7.55;;;15.20;99.90;;;;;;5034215;28;20049;-69
2022/05/14 06:16:48;;;;;;;42.15;8.95;;;15.20;99.90;;;;;;5035300;28;20396;-69
2022/05/14 06:19:14;;;;;;;45.05;7.85;;;15.40;99.90;;;;;;5017614;28;20122;-69
2022/05/14 06:21:40;;;;;;;41.05;6.60;;;15.20;99.90;;;;;;5035169;28;20041;-69
2022/05/14 06:24:07;;;;;;;37.63;6.05;;;15.10;99.90;;;;;;5035026;28;20053;-69
2022/05/14 06:26:33;;;;;;;26.58;5.78;;;15.20;99.90;;;;;;5034980;28;20045;-69
2022/05/14 06:28:59;;;;;;;26.20;5.22;;;15.10;99.90;;;;;;5035004;28;20049;-69
2022/05/14 06:31:26;;;;;;;29.92;5.38;;;15.20;99.90;;;;;;5034660;28;20425;-69
2022/05/14 06:33:51;;;;;;;29.25;5.65;;;15.20;99.90;;;;;;5034572;28;20088;-72
2022/05/14 06:36:18;;;;;;;28.17;5.13;;;15.30;99.90;;;;;;5033633;28;20129;-70
2022/05/14 06:38:43;;;;;;;27.88;5.03;;;15.30;99.90;;;;;;5034204;28;20088;-70
2022/05/14 06:41:12;;;;;;;31.42;5.70;;;15.40;99.90;;;;;;5034560;28;20092;-70
2022/05/14 06:43:39;;;;;;;29.95;5.25;;;15.40;99.90;;;;;;5034551;28;20089;-70
2022/05/14 06:46:04;;;;;;;33.22;5.57;;;15.30;99.90;;;;;;5034567;28;20457;-71
2022/05/14 06:48:31;;;;;;;28.58;5.78;;;15.30;99.90;;;;;;5034094;28;20136;-73
2022/05/14 06:51:01;;;;;;;28.20;4.90;;;15.50;99.90;;;;;;5033166;28;20043;-70
2022/05/14 06:53:28;;;;;;;27.33;4.80;;;15.80;99.90;;;;;;5015517;28;20056;-73
2022/05/14 06:55:56;;;;;;;23.38;4.97;;;15.90;99.90;;;;;;5033596;28;20060;-73
2022/05/14 06:58:29;;;;;;;28.45;4.70;;;16.00;99.90;;;;;;5033033;28;20064;-70
2022/05/14 07:00:55;;;;;;;28.17;5.50;;;16.00;99.90;;;;;;5033908;28;20046;-71
2022/05/14 07:08:51;;;;;;;22.60;4.45;;;16.00;99.90;;;;;;5034303;28;20057;-70
2022/05/14 07:11:17;;;;;;;26.13;4.53;;;16.20;99.90;;;;;;5033391;28;20049;-71
2022/05/14 07:13:42;;;;;;;21.15;4.50;;;16.20;99.90;;;;;;5033865;28;20072;-70
2022/05/14 07:16:08;;;;;;;24.15;4.53;;;16.30;99.90;;;;;;5016737;28;20045;-69
2022/05/14 07:18:34;;;;;;;29.05;4.38;;;16.30;99.90;;;;;;5034435;28;20467;-69
2022/05/14 07:20:59;;;;;;;28.55;5.05;;;16.40;99.90;;;;;;5016253;28;20480;-70
2022/05/14 07:23:25;;;;;;;24.27;4.78;;;16.40;99.90;;;;;;5033457;28;20045;-70
2022/05/14 07:25:51;;;;;;;28.70;5.15;;;16.50;99.90;;;;;;5033964;28;20416;-70
2022/05/14 07:28:17;;;;;;;22.55;4.30;;;16.50;99.90;;;;;;5033918;28;20087;-70
2022/05/14 07:30:43;;;;;;;24.50;4.55;;;16.60;99.90;;;;;;5016498;28;20067;-70
2022/05/14 07:33:09;;;;;;;21.73;4.03;;;16.70;99.90;;;;;;5034015;28;20454;-70
2022/05/14 07:35:36;;;;;;;22.05;4.03;;;16.70;99.90;;;;;;5016526;28;20061;-70
2022/05/14 07:38:05;;;;;;;30.17;4.97;;;16.80;99.90;;;;;;5033974;28;20053;-70
2022/05/14 07:40:34;;;;;;;23.23;4.22;;;16.80;99.90;;;;;;5033672;28;20050;-70
2022/05/14 07:43:05;;;;;;;23.58;5.10;;;16.90;99.90;;;;;;5033761;28;20179;-70
2022/05/14 07:45:41;;;;;;;22.00;4.43;;;16.80;99.90;;;;;;5033830;28;20056;-71
2022/05/14 07:48:31;;;;;;;31.45;5.75;;;16.90;99.90;;;;;;5032852;28;20060;-70
2022/05/14 07:51:03;;;;;;;20.38;4.03;;;17.00;99.90;;;;;;5027945;28;20050;-70
2022/05/14 07:53:30;;;;;;;22.98;4.57;;;16.90;99.90;;;;;;5016785;28;20602;-69
2022/05/14 07:56:01;;;;;;;22.38;4.22;;;17.10;99.90;;;;;;5033571;28;20183;-69
2022/05/14 07:58:27;;;;;;;19.58;3.97;;;17.10;99.90;;;;;;5033300;28;20431;-69
2022/05/14 08:00:54;;;;;;;24.00;4.18;;;17.20;99.90;;;;;;5034767;28;20511;-69
2022/05/14 08:03:23;;;;;;;22.70;3.75;;;17.30;99.90;;;;;;5034762;28;20510;-68
2022/05/14 08:05:50;;;;;;;23.15;4.57;;;17.30;99.90;;;;;;5033534;28;20053;-68
2022/05/14 08:08:16;;;;;;;22.05;3.92;;;17.50;99.90;;;;;;5016063;28;20120;-69
2022/05/14 08:10:41;;;;;;;27.73;4.95;;;17.60;99.90;;;;;;5033680;28;20129;-69
2022/05/14 08:13:13;;;;;;;18.60;4.10;;;17.60;99.90;;;;;;5033468;28;20050;-69
2022/05/14 08:15:39;;;;;;;20.70;4.95;;;17.70;99.90;;;;;;5032426;28;20045;-69
2022/05/14 08:18:04;;;;;;;22.38;4.43;;;17.80;99.90;;;;;;5033710;28;20072;-69
2022/05/14 08:20:30;;;;;;;23.67;4.63;;;17.90;99.90;;;;;;5033333;28;20045;-69
2022/05/14 08:25:40;;;;;;;22.77;4.40;;;17.70;99.90;;;;;;5033394;28;20096;-68
2022/05/14 08:28:06;;;;;;;18.80;4.13;;;17.90;99.90;;;;;;5033283;28;20092;-69
2022/05/14 08:30:34;;;;;;;19.45;4.28;;;17.80;99.90;;;;;;5033062;28;20452;-69
2022/05/14 08:33:00;;;;;;;29.80;5.57;;;17.80;99.90;;;;;;5033269;28;20051;-69
2022/05/14 08:35:27;;;;;;;24.50;4.55;;;18.00;99.90;;;;;;5017533;28;20518;-69
2022/05/14 08:37:54;;;;;;;26.17;4.80;;;18.00;99.90;;;;;;5037388;28;20080;-69
2022/05/14 08:40:29;;;;;;;23.48;4.97;;;17.90;99.90;;;;;;5036937;28;20045;-68
2022/05/14 08:42:59;;;;;;;20.08;4.55;;;17.90;99.90;;;;;;5037068;28;20068;-70
2022/05/14 08:45:28;;;;;;;24.27;4.13;;;18.20;99.90;;;;;;5037259;28;20052;-70
2022/05/14 08:47:57;;;;;;;25.30;4.47;;;18.40;99.90;;;;;;5036878;28;20124;-69
2022/05/14 08:50:32;;;;;;;19.35;4.32;;;18.30;99.90;;;;;;5036784;28;20135;-69
2022/05/14 08:53:00;;;;;;;21.88;4.07;;;18.30;99.90;;;;;;5036814;28;20041;-79
2022/05/14 08:55:36;;;;;;;22.80;4.43;;;18.10;99.90;;;;;;5019024;28;20060;-79
2022/05/14 08:58:22;;;;;;;25.05;5.28;;;17.90;99.90;;;;;;5018970;28;20049;-79
2022/05/14 09:00:48;;;;;;;23.27;4.00;;;17.80;99.90;;;;;;5036340;28;20120;-69
2022/05/14 09:03:13;;;;;;;26.92;5.18;;;18.30;99.90;;;;;;5036626;28;20160;-81
2022/05/14 09:05:39;;;;;;;22.17;4.32;;;18.40;99.90;;;;;;5019104;28;20366;-77
2022/05/14 09:08:06;;;;;;;24.20;4.57;;;18.20;99.90;;;;;;5019304;28;20468;-69
2022/05/14 09:10:39;;;;;;;23.85;4.50;;;18.10;99.90;;;;;;5019318;28;20061;-70
2022/05/14 09:13:21;;;;;;;24.42;4.38;;;18.20;99.90;;;;;;5036431;28;20491;-70
2022/05/14 09:16:02;;;;;;;26.13;4.82;;;18.50;99.90;;;;;;5036470;28;20049;-70
2022/05/14 09:18:44;;;;;;;24.98;4.85;;;18.40;99.90;;;;;;5036435;28;20056;-71
2022/05/14 09:21:27;;;;;;;22.85;4.55;;;18.50;99.90;;;;;;5036232;28;20156;-70
2022/05/14 09:24:14;;;;;;;18.50;3.83;;;18.80;99.90;;;;;;5019114;28;20434;-71
2022/05/14 09:26:41;;;;;;;21.55;3.88;;;19.20;99.90;;;;;;5036360;28;20041;-70
2022/05/14 09:29:29;;;;;;;22.23;4.32;;;19.60;99.90;;;;;;5035890;28;20395;-70
2022/05/14 09:31:58;;;;;;;18.75;3.63;;;19.90;99.70;;;;;;5036433;28;20092;-69
2022/05/14 09:34:24;;;;;;;20.65;3.85;;;19.70;99.60;;;;;;5018086;28;20057;-69
2022/05/14 09:36:51;;;;;;;26.30;4.13;;;19.60;99.50;;;;;;5036364;28;20060;-70
2022/05/14 09:39:22;;;;;;;24.05;4.00;;;19.40;99.50;;;;;;5036001;28;20057;-70
2022/05/14 09:41:56;;;;;;;17.25;3.95;;;19.10;99.80;;;;;;5035867;28;20045;-70
2022/05/14 09:44:24;;;;;;;25.15;5.13;;;19.30;99.90;;;;;;5036225;28;20057;-78
2022/05/14 09:46:52;;;;;;;25.85;4.80;;;19.10;99.90;;;;;;5017834;28;20446;-78
2022/05/14 09:49:26;;;;;;;19.95;3.90;;;18.80;99.90;;;;;;5018451;28;20103;-77
2022/05/14 09:51:56;;;;;;;22.67;4.18;;;18.70;99.70;;;;;;5018363;28;20516;-89
2022/05/14 09:54:27;;;;;;;25.65;5.32;;;18.60;99.90;;;;;;5002765;28;20045;-89
2022/05/14 09:57:05;;;;;;;19.80;4.00;;;18.60;99.80;;;;;;5018849;28;20053;-89
2022/05/14 10:00:00;;;;;;;30.80;4.63;;;18.30;99.80;;;;;;5018074;28;20091;-77
2022/05/14 10:02:45;;;;;;;20.67;4.45;;;18.20;99.90;;;;;;5035643;28;20088;-72
2022/05/14 10:05:19;;;;;;;22.70;4.55;;;18.70;99.90;;;;;;5035785;28;20089;-72
2022/05/14 10:07:56;;;;;;;24.05;4.65;;;19.30;99.90;;;;;;5017807;28;20097;-69
2022/05/14 10:10:47;;;;;;;25.20;4.43;;;19.50;99.60;;;;;;5035091;28;20045;-69
2022/05/14 10:13:34;;;;;;;19.60;4.47;;;19.70;99.10;;;;;;5035491;28;20049;-70
2022/05/14 10:16:11;;;;;;;21.25;4.30;;;20.00;98.80;;;;;;5035308;28;20049;-70
2022/05/14 10:18:53;;;;;;;27.55;4.55;;;20.10;99.10;;;;;;5017663;28;20053;-71
2022/05/14 10:21:28;;;;;;;18.70;4.18;;;20.50;98.80;;;;;;5034959;28;20132;-71
2022/05/14 10:27:25;;;;;;;21.40;3.90;;;20.50;98.90;;;;;;5035064;28;20954;-85
2022/05/14 10:30:20;;;;;;;26.30;4.60;;;20.20;99.00;;;;;;5017315;28;20519;-70
2022/05/14 10:32:54;;;;;;;25.90;4.65;;;20.40;99.10;;;;;;5035340;28;20068;-70
2022/05/14 10:35:27;;;;;;;24.05;4.28;;;20.40;99.00;;;;;;5016906;28;20087;-70
2022/05/14 10:37:57;;;;;;;19.42;4.15;;;20.80;99.20;;;;;;5017455;28;20084;-70
2022/05/14 10:40:39;;;;;;;22.15;4.03;;;20.90;98.90;;;;;;5017168;28;20045;-70
2022/05/14 10:43:19;;;;;;;22.98;4.10;;;21.10;99.00;;;;;;5034879;28;20128;-70
2022/05/14 10:45:47;;;;;;;22.05;4.70;;;21.20;98.70;;;;;;5034879;28;20052;-71
2022/05/14 10:48:35;;;;;;;21.85;4.50;;;21.40;98.70;;;;;;5017153;28;20041;-71
2022/05/14 10:51:07;;;;;;;23.70;4.00;;;21.30;98.30;;;;;;5034650;28;20077;-71
2022/05/14 10:53:33;;;;;;;19.88;4.40;;;21.30;98.50;;;;;;5017195;28;20050;-71
2022/05/14 10:56:09;;;;;;;25.42;4.65;;;21.40;98.20;;;;;;5035446;28;20037;-73
2022/05/14 10:58:52;;;;;;;23.43;4.00;;;21.60;98.30;;;;;;5034220;28;20487;-72
2022/05/14 11:01:26;;;;;;;22.50;4.82;;;21.80;98.20;;;;;;5034023;28;20046;-72
2022/05/14 11:03:58;;;;;;;17.63;4.05;;;21.90;98.20;;;;;;5034323;28;20045;-72
2022/05/14 11:06:30;;;;;;;18.13;4.13;;;21.80;98.30;;;;;;5033295;28;20049;-73
2022/05/14 11:08:56;;;;;;;20.17;4.43;;;22.00;98.10;;;;;;5016303;28;20053;-73
2022/05/14 11:11:31;;;;;;;25.92;4.25;;;22.10;97.80;;;;;;5034271;28;20055;-72
2022/05/14 11:14:01;;;;;;;21.03;4.20;;;22.20;97.70;;;;;;5034282;28;20049;-72
2022/05/14 11:16:49;;;;;;;21.67;4.85;;;22.00;97.90;;;;;;5032999;28;20091;-73
2022/05/14 11:19:32;;;;;;;17.92;4.35;;;22.00;97.60;;;;;;5016908;28;20389;-72
2022/05/14 11:22:00;;;;;;;15.82;3.50;;;22.20;97.70;;;;;;5034363;28;20087;-73
2022/05/14 11:24:37;;;;;;;22.20;5.03;;;22.40;97.50;;;;;;5016380;28;20052;-72
2022/05/14 11:27:04;;;;;;;23.80;5.25;;;22.30;97.30;;;;;;5034011;28;20057;-71
2022/05/14 11:29:45;;;;;;;18.85;3.90;;;21.90;97.20;;;;;;5033952;28;20048;-72
2022/05/14 11:32:15;;;;;;;22.15;4.40;;;21.40;97.80;;;;;;5033156;28;20041;-72
2022/05/14 11:34:53;;;;;;;22.35;4.07;;;21.40;97.80;;;;;;5036137;28;20407;-71
2022/05/14 11:37:39;;;;;;;23.88;4.63;;;21.70;97.90;;;;;;5034281;28;20053;-71
2022/05/14 11:40:24;;;;;;;;;;;21.70;97.60;;;;;;5033645;28;20050;-77
2022/05/14 11:43:11;;;;;;;20.83;4.10;;;21.40;97.50;;;;;;5032347;28;19921;-72
2022/05/14 11:45:48;;;;;;;25.17;4.43;;;21.50;97.80;;;;;;5031763;28;20053;-73
2022/05/14 11:48:30;;;;;;;23.88;4.38;;;22.10;97.70;;;;;;5032730;28;20128;-94
2022/05/14 11:51:12;;;;;;;18.05;4.57;;;22.30;97.60;;;;;;5016025;28;20061;-70
2022/05/14 11:53:48;;;;;;;19.10;3.95;;;22.20;97.50;;;;;;5033988;28;20076;-69
2022/05/14 11:56:44;;;;;;;18.95;4.22;;;22.70;97.50;;;;;;5033805;28;20046;-82
2022/05/14 11:59:29;;;;;;;21.52;4.50;;;22.80;97.30;;;;;;5016092;28;20485;-82
2022/05/14 12:01:59;;;;;;;20.95;4.47;;;22.10;97.20;;;;;;5016165;28;20089;-81
2022/05/14 12:04:40;;;;;;;21.75;4.07;;;22.20;97.20;;;;;;5016319;28;20053;-70
2022/05/14 12:07:24;;;;;;;20.15;4.30;;;22.20;97.20;;;;;;5016241;28;20107;-71
2022/05/14 12:10:18;;;;;;;17.48;4.05;;;22.60;97.10;;;;;;5035542;28;20088;-70
2022/05/14 12:13:02;;;;;;;28.85;5.18;;;22.60;96.70;;;;;;5020552;28;20053;-71
2022/05/14 12:15:30;;;;;;;18.27;4.07;;;22.60;96.80;;;;;;5037702;28;20096;-72
2022/05/14 12:17:57;;;;;;;25.05;4.22;;;22.30;96.90;;;;;;5019947;28;20053;-71
2022/05/14 12:20:26;;;;;;;22.05;4.03;;;22.00;96.70;;;;;;5037309;28;20038;-71
2022/05/14 12:23:01;;;;;;;21.70;4.40;;;21.60;96.70;;;;;;5037426;28;20460;-71
2022/05/14 12:25:53;;;;;;;22.88;4.78;;;21.70;96.90;;;;;;5037320;28;20042;-71
2022/05/14 12:28:25;;;;;;;21.65;4.15;;;21.70;97.00;;;;;;5017363;28;20563;-71
2022/05/14 12:33:57;;;;;;;22.42;5.35;;;22.00;97.00;;;;;;5036790;28;20515;-71
2022/05/14 12:36:27;;;;;;;20.08;4.25;;;22.30;97.00;;;;;;5037153;28;20052;-71
2022/05/14 12:38:53;;;;;;;26.63;3.97;;;22.30;97.10;;;;;;5037002;28;20555;-71
2022/05/14 12:41:25;;;;;;;20.23;4.15;;;22.10;96.80;;;;;;5036941;28;20045;-71
2022/05/14 12:43:51;;;;;;;22.48;4.65;;;21.80;97.30;;;;;;5037294;28;20049;-71
2022/05/14 12:46:19;;;;;;;22.88;4.63;;;21.80;97.20;;;;;;5036923;28;20080;-71
2022/05/14 12:48:50;;;;;;;22.40;4.45;;;21.90;97.30;;;;;;5036881;28;20068;-71
2022/05/14 12:51:22;;;;;;;20.05;4.55;;;21.90;97.10;;;;;;5036781;28;20077;-73
2022/05/14 12:53:49;;;;;;;22.52;4.78;;;22.10;97.10;;;;;;5036824;28;20111;-71
2022/05/14 12:56:17;;;;;;;27.75;5.13;;;22.20;97.10;;;;;;5036748;28;20053;-70
2022/05/14 12:58:43;;;;;;;18.70;4.68;;;22.30;96.90;;;;;;5019222;28;20084;-70
2022/05/14 13:01:10;;;;;;;19.63;4.40;;;22.00;97.00;;;;;;5036293;28;20041;-70
2022/05/14 13:03:35;;;;;;;24.08;4.40;;;21.90;96.90;;;;;;5036761;28;20068;-70
2022/05/14 13:06:04;;;;;;;22.02;4.40;;;21.70;96.80;;;;;;5019132;28;20476;-71
2022/05/14 13:08:31;;;;;;;24.60;4.45;;;21.50;97.00;;;;;;5036861;28;20053;-71
2022/05/14 13:11:04;;;;;;;21.85;4.18;;;21.60;96.90;;;;;;5036470;28;20057;-71
2022/05/14 13:13:54;;;;;;;20.88;3.97;;;21.60;97.20;;;;;;5036444;28;20045;-71
2022/05/14 13:16:24;;;;;;;24.70;5.28;;;21.30;97.30;;;;;;5031056;28;20183;-71